sensor_id;sensor_type;location;lat;lon;timestamp;P1;durP1;ratioP1;P2;durP2;ratioP2
20159;SDS011;50187;50.492;12.134;2023-09-07T00:00:30;2.50;;;2.40;;
20159;SDS011;50187;50.492;12.134;2023-09-07T00:02:57;2.20;;;2.10;;
20159;SDS011;50187;50.492;12.134;2023-09-07T00:05:24;2.20;;;2.10;;
20159;SDS011;50187;50.492;12.134;2023-09-07T00:07:51;2.33;;;2.23;;
20159;SDS011;50187;50.492;12.134;2023-09-07T00:10:17;2.93;;;2.83;;
20159;SDS011;50187;50.492;12.134;2023-09-07T00:12:44;2.23;;;2.10;;
20159;SDS011;50187;50.492;12.134;2023-09-07T00:15:12;2.67;;;2.47;;
20159;SDS011;50187;50.492;12.134;2023-09-07T00:17:39;2.50;;;2.40;;
20159;SDS011;50187;50.492;12.134;2023-09-07T00:20:06;2.30;;;2.20;;
20159;SDS011;50187;50.492;12.134;2023-09-07T00:22:37;2.23;;;2.03;;
20159;SDS011;50187;50.492;12.134;2023-09-07T00:25:04;2.70;;;2.50;;
20159;SDS011;50187;50.492;12.134;2023-09-07T00:27:33;2.10;;;2.00;;
20159;SDS011;50187;50.492;12.134;2023-09-07T00:30:01;2.57;;;2.37;;
20159;SDS011;50187;50.492;12.134;2023-09-07T00:32:32;2.93;;;2.70;;
20159;SDS011;50187;50.492;12.134;2023-09-07T00:35:00;2.40;;;2.30;;
20159;SDS011;50187;50.492;12.134;2023-09-07T00:37:26;2.80;;;2.60;;
20159;SDS011;50187;50.492;12.134;2023-09-07T00:39:53;2.47;;;2.37;;
20159;SDS011;50187;50.492;12.134;2023-09-07T00:42:19;2.63;;;2.43;;
20159;SDS011;50187;50.492;12.134;2023-09-07T00:44:46;2.20;;;2.10;;
20159;SDS011;50187;50.492;12.134;2023-09-07T00:47:14;2.63;;;2.43;;
20159;SDS011;50187;50.492;12.134;2023-09-07T00:49:42;2.67;;;2.57;;
20159;SDS011;50187;50.492;12.134;2023-09-07T00:52:09;2.67;;;2.50;;
20159;SDS011;50187;50.492;12.134;2023-09-07T00:54:36;3.10;;;2.80;;
20159;SDS011;50187;50.492;12.134;2023-09-07T00:57:07;2.60;;;2.50;;
20159;SDS011;50187;50.492;12.134;2023-09-07T00:59:34;2.20;;;2.00;;
20159;SDS011;50187;50.492;12.134;2023-09-07T01:02:01;2.63;;;2.43;;
20159;SDS011;50187;50.492;12.134;2023-09-07T01:04:27;2.23;;;2.13;;
20159;SDS011;50187;50.492;12.134;2023-09-07T01:07:00;2.70;;;2.50;;
20159;SDS011;50187;50.492;12.134;2023-09-07T01:09:30;2.40;;;2.20;;
20159;SDS011;50187;50.492;12.134;2023-09-07T01:11:59;2.80;;;2.60;;
20159;SDS011;50187;50.492;12.134;2023-09-07T01:14:26;2.53;;;2.43;;
20159;SDS011;50187;50.492;12.134;2023-09-07T01:16:52;3.03;;;2.83;;
20159;SDS011;50187;50.492;12.134;2023-09-07T01:19:20;2.70;;;2.50;;
20159;SDS011;50187;50.492;12.134;2023-09-07T01:21:47;2.77;;;2.57;;
20159;SDS011;50187;50.492;12.134;2023-09-07T01:24:16;2.67;;;2.50;;
20159;SDS011;50187;50.492;12.134;2023-09-07T01:26:43;2.57;;;2.20;;
20159;SDS011;50187;50.492;12.134;2023-09-07T01:29:15;2.57;;;2.40;;
20159;SDS011;50187;50.492;12.134;2023-09-07T01:31:45;2.60;;;2.40;;
20159;SDS011;50187;50.492;12.134;2023-09-07T01:34:12;2.37;;;2.27;;
20159;SDS011;50187;50.492;12.134;2023-09-07T01:36:38;2.90;;;2.70;;
20159;SDS011;50187;50.492;12.134;2023-09-07T01:39:05;2.23;;;2.13;;
20159;SDS011;50187;50.492;12.134;2023-09-07T01:41:32;2.93;;;2.50;;
20159;SDS011;50187;50.492;12.134;2023-09-07T01:44:00;2.47;;;2.27;;
20159;SDS011;50187;50.492;12.134;2023-09-07T01:46:26;2.60;;;2.40;;
20159;SDS011;50187;50.492;12.134;2023-09-07T01:48:53;2.40;;;2.30;;
20159;SDS011;50187;50.492;12.134;2023-09-07T01:51:20;2.40;;;2.20;;
20159;SDS011;50187;50.492;12.134;2023-09-07T01:53:47;1.90;;;1.80;;
20159;SDS011;50187;50.492;12.134;2023-09-07T01:56:18;2.63;;;2.43;;
20159;SDS011;50187;50.492;12.134;2023-09-07T01:58:44;2.10;;;2.00;;
20159;SDS011;50187;50.492;12.134;2023-09-07T02:01:24;2.73;;;2.53;;
20159;SDS011;50187;50.492;12.134;2023-09-07T02:03:52;2.43;;;2.27;;
20159;SDS011;50187;50.492;12.134;2023-09-07T02:06:19;2.63;;;2.47;;
20159;SDS011;50187;50.492;12.134;2023-09-07T02:08:46;2.60;;;2.40;;
20159;SDS011;50187;50.492;12.134;2023-09-07T02:11:13;2.80;;;2.60;;
20159;SDS011;50187;50.492;12.134;2023-09-07T02:13:43;2.40;;;2.30;;
20159;SDS011;50187;50.492;12.134;2023-09-07T02:16:10;2.53;;;2.33;;
20159;SDS011;50187;50.492;12.134;2023-09-07T02:18:37;2.30;;;2.20;;
20159;SDS011;50187;50.492;12.134;2023-09-07T02:21:06;2.30;;;2.20;;
20159;SDS011;50187;50.492;12.134;2023-09-07T02:23:32;2.60;;;2.40;;
20159;SDS011;50187;50.492;12.134;2023-09-07T02:25:59;2.70;;;2.50;;
20159;SDS011;50187;50.492;12.134;2023-09-07T02:28:26;2.47;;;2.37;;
20159;SDS011;50187;50.492;12.134;2023-09-07T02:30:53;3.13;;;2.93;;
20159;SDS011;50187;50.492;12.134;2023-09-07T02:33:20;2.37;;;2.27;;
20159;SDS011;50187;50.492;12.134;2023-09-07T02:35:49;2.87;;;2.67;;
20159;SDS011;50187;50.492;12.134;2023-09-07T02:38:16;2.60;;;2.40;;
20159;SDS011;50187;50.492;12.134;2023-09-07T02:40:44;2.30;;;2.20;;
20159;SDS011;50187;50.492;12.134;2023-09-07T02:43:12;2.80;;;2.60;;
20159;SDS011;50187;50.492;12.134;2023-09-07T02:45:38;2.30;;;2.20;;
20159;SDS011;50187;50.492;12.134;2023-09-07T02:48:05;2.70;;;2.50;;
20159;SDS011;50187;50.492;12.134;2023-09-07T02:50:34;2.60;;;2.40;;
20159;SDS011;50187;50.492;12.134;2023-09-07T02:53:01;2.80;;;2.60;;
20159;SDS011;50187;50.492;12.134;2023-09-07T02:55:29;2.40;;;2.30;;
20159;SDS011;50187;50.492;12.134;2023-09-07T02:57:56;2.57;;;2.40;;
20159;SDS011;50187;50.492;12.134;2023-09-07T03:00:24;2.80;;;2.60;;
20159;SDS011;50187;50.492;12.134;2023-09-07T03:02:51;2.63;;;2.43;;
20159;SDS011;50187;50.492;12.134;2023-09-07T03:05:18;2.80;;;2.60;;
20159;SDS011;50187;50.492;12.134;2023-09-07T03:07:46;2.27;;;2.17;;
20159;SDS011;50187;50.492;12.134;2023-09-07T03:10:15;2.60;;;2.50;;
20159;SDS011;50187;50.492;12.134;2023-09-07T03:12:43;2.10;;;2.00;;
20159;SDS011;50187;50.492;12.134;2023-09-07T03:15:11;2.77;;;2.57;;
20159;SDS011;50187;50.492;12.134;2023-09-07T03:17:40;2.23;;;2.13;;
20159;SDS011;50187;50.492;12.134;2023-09-07T03:23:09;2.93;;;2.63;;
20159;SDS011;50187;50.492;12.134;2023-09-07T03:25:36;2.20;;;2.10;;
20159;SDS011;50187;50.492;12.134;2023-09-07T03:28:03;2.40;;;2.30;;
20159;SDS011;50187;50.492;12.134;2023-09-07T03:30:32;2.43;;;2.23;;
20159;SDS011;50187;50.492;12.134;2023-09-07T03:33:00;2.17;;;2.07;;
20159;SDS011;50187;50.492;12.134;2023-09-07T03:35:26;2.80;;;2.60;;
20159;SDS011;50187;50.492;12.134;2023-09-07T03:37:53;2.23;;;2.13;;
20159;SDS011;50187;50.492;12.134;2023-09-07T03:40:20;2.37;;;2.27;;
20159;SDS011;50187;50.492;12.134;2023-09-07T03:42:46;2.47;;;2.33;;
20159;SDS011;50187;50.492;12.134;2023-09-07T03:45:13;2.23;;;2.13;;
20159;SDS011;50187;50.492;12.134;2023-09-07T03:47:40;2.10;;;2.00;;
20159;SDS011;50187;50.492;12.134;2023-09-07T03:50:09;3.10;;;2.53;;
20159;SDS011;50187;50.492;12.134;2023-09-07T03:52:36;2.43;;;2.33;;
20159;SDS011;50187;50.492;12.134;2023-09-07T03:55:04;2.43;;;2.23;;
20159;SDS011;50187;50.492;12.134;2023-09-07T03:57:31;2.70;;;2.50;;
20159;SDS011;50187;50.492;12.134;2023-09-07T03:59:59;2.50;;;2.40;;
20159;SDS011;50187;50.492;12.134;2023-09-07T04:02:26;2.30;;;2.20;;
20159;SDS011;50187;50.492;12.134;2023-09-07T04:04:53;2.50;;;2.40;;
20159;SDS011;50187;50.492;12.134;2023-09-07T04:07:21;2.30;;;2.20;;
20159;SDS011;50187;50.492;12.134;2023-09-07T04:09:49;2.73;;;2.53;;
20159;SDS011;50187;50.492;12.134;2023-09-07T04:12:17;2.50;;;2.30;;
20159;SDS011;50187;50.492;12.134;2023-09-07T04:14:43;2.13;;;2.03;;
20159;SDS011;50187;50.492;12.134;2023-09-07T04:17:11;2.20;;;2.10;;
20159;SDS011;50187;50.492;12.134;2023-09-07T04:19:38;2.23;;;2.13;;
20159;SDS011;50187;50.492;12.134;2023-09-07T04:22:05;2.63;;;2.43;;
20159;SDS011;50187;50.492;12.134;2023-09-07T04:24:31;2.70;;;2.50;;
20159;SDS011;50187;50.492;12.134;2023-09-07T04:27:00;2.63;;;2.47;;
20159;SDS011;50187;50.492;12.134;2023-09-07T04:29:28;2.80;;;2.60;;
20159;SDS011;50187;50.492;12.134;2023-09-07T04:31:55;2.80;;;2.67;;
20159;SDS011;50187;50.492;12.134;2023-09-07T04:34:22;2.17;;;2.07;;
20159;SDS011;50187;50.492;12.134;2023-09-07T04:36:50;2.60;;;2.40;;
20159;SDS011;50187;50.492;12.134;2023-09-07T04:39:17;2.40;;;2.30;;
20159;SDS011;50187;50.492;12.134;2023-09-07T04:41:44;2.60;;;2.50;;
20159;SDS011;50187;50.492;12.134;2023-09-07T04:44:11;2.30;;;2.20;;
20159;SDS011;50187;50.492;12.134;2023-09-07T04:46:37;2.40;;;2.30;;
20159;SDS011;50187;50.492;12.134;2023-09-07T04:49:05;2.90;;;2.70;;
20159;SDS011;50187;50.492;12.134;2023-09-07T04:51:31;2.57;;;2.37;;
20159;SDS011;50187;50.492;12.134;2023-09-07T04:53:58;2.40;;;2.30;;
20159;SDS011;50187;50.492;12.134;2023-09-07T04:56:25;2.40;;;2.30;;
20159;SDS011;50187;50.492;12.134;2023-09-07T04:58:52;2.60;;;2.50;;
20159;SDS011;50187;50.492;12.134;2023-09-07T05:01:19;2.27;;;2.17;;
20159;SDS011;50187;50.492;12.134;2023-09-07T05:03:46;3.10;;;2.47;;
20159;SDS011;50187;50.492;12.134;2023-09-07T05:06:13;2.60;;;2.50;;
20159;SDS011;50187;50.492;12.134;2023-09-07T05:08:40;2.30;;;2.20;;
20159;SDS011;50187;50.492;12.134;2023-09-07T05:11:07;2.50;;;2.40;;
20159;SDS011;50187;50.492;12.134;2023-09-07T05:13:34;2.50;;;2.40;;
20159;SDS011;50187;50.492;12.134;2023-09-07T05:16:01;2.37;;;2.27;;
20159;SDS011;50187;50.492;12.134;2023-09-07T05:18:28;2.40;;;2.30;;
20159;SDS011;50187;50.492;12.134;2023-09-07T05:20:56;2.70;;;2.50;;
20159;SDS011;50187;50.492;12.134;2023-09-07T05:23:23;2.73;;;2.57;;
20159;SDS011;50187;50.492;12.134;2023-09-07T05:25:53;2.40;;;2.30;;
20159;SDS011;50187;50.492;12.134;2023-09-07T05:28:23;3.70;;;2.63;;
20159;SDS011;50187;50.492;12.134;2023-09-07T05:30:53;2.40;;;2.20;;
20159;SDS011;50187;50.492;12.134;2023-09-07T05:33:21;2.80;;;2.60;;
20159;SDS011;50187;50.492;12.134;2023-09-07T05:35:48;2.50;;;2.40;;
20159;SDS011;50187;50.492;12.134;2023-09-07T05:38:15;2.40;;;2.30;;
20159;SDS011;50187;50.492;12.134;2023-09-07T05:40:44;2.63;;;2.43;;
20159;SDS011;50187;50.492;12.134;2023-09-07T05:43:11;2.60;;;2.40;;
20159;SDS011;50187;50.492;12.134;2023-09-07T05:45:39;2.50;;;2.30;;
20159;SDS011;50187;50.492;12.134;2023-09-07T05:48:08;2.70;;;2.50;;
20159;SDS011;50187;50.492;12.134;2023-09-07T05:50:37;2.73;;;2.57;;
20159;SDS011;50187;50.492;12.134;2023-09-07T05:53:04;2.90;;;2.70;;
20159;SDS011;50187;50.492;12.134;2023-09-07T05:55:32;2.40;;;2.20;;
20159;SDS011;50187;50.492;12.134;2023-09-07T05:58:03;2.87;;;2.67;;
20159;SDS011;50187;50.492;12.134;2023-09-07T06:00:33;2.87;;;2.67;;
20159;SDS011;50187;50.492;12.134;2023-09-07T06:03:01;2.50;;;2.40;;
20159;SDS011;50187;50.492;12.134;2023-09-07T06:05:30;2.27;;;2.17;;
20159;SDS011;50187;50.492;12.134;2023-09-07T06:07:57;3.00;;;2.80;;
20159;SDS011;50187;50.492;12.134;2023-09-07T06:10:23;2.50;;;2.40;;
20159;SDS011;50187;50.492;12.134;2023-09-07T06:12:50;2.53;;;2.37;;
20159;SDS011;50187;50.492;12.134;2023-09-07T06:15:17;2.07;;;1.97;;
20159;SDS011;50187;50.492;12.134;2023-09-07T06:17:44;2.30;;;2.20;;
20159;SDS011;50187;50.492;12.134;2023-09-07T06:20:12;2.60;;;2.47;;
20159;SDS011;50187;50.492;12.134;2023-09-07T06:22:39;9.60;;;3.40;;
20159;SDS011;50187;50.492;12.134;2023-09-07T06:25:06;6.83;;;3.53;;
20159;SDS011;50187;50.492;12.134;2023-09-07T06:27:34;4.13;;;3.23;;
20159;SDS011;50187;50.492;12.134;2023-09-07T06:30:00;4.33;;;3.20;;
20159;SDS011;50187;50.492;12.134;2023-09-07T06:32:28;4.00;;;3.47;;
20159;SDS011;50187;50.492;12.134;2023-09-07T06:34:55;7.47;;;4.17;;
20159;SDS011;50187;50.492;12.134;2023-09-07T06:37:22;10.60;;;4.90;;
20159;SDS011;50187;50.492;12.134;2023-09-07T06:39:51;7.70;;;4.63;;
20159;SDS011;50187;50.492;12.134;2023-09-07T06:42:18;9.43;;;4.63;;
20159;SDS011;50187;50.492;12.134;2023-09-07T06:44:48;5.57;;;3.27;;
20159;SDS011;50187;50.492;12.134;2023-09-07T06:47:16;7.00;;;3.67;;
20159;SDS011;50187;50.492;12.134;2023-09-07T06:49:42;9.70;;;3.67;;
20159;SDS011;50187;50.492;12.134;2023-09-07T06:52:09;4.20;;;3.47;;
20159;SDS011;50187;50.492;12.134;2023-09-07T06:54:37;7.00;;;3.80;;
20159;SDS011;50187;50.492;12.134;2023-09-07T06:57:08;6.40;;;3.83;;
20159;SDS011;50187;50.492;12.134;2023-09-07T06:59:37;5.43;;;4.00;;
20159;SDS011;50187;50.492;12.134;2023-09-07T07:02:04;3.73;;;3.43;;
20159;SDS011;50187;50.492;12.134;2023-09-07T07:04:32;4.47;;;3.80;;
20159;SDS011;50187;50.492;12.134;2023-09-07T07:06:59;4.10;;;3.80;;
20159;SDS011;50187;50.492;12.134;2023-09-07T07:09:27;5.17;;;4.00;;
20159;SDS011;50187;50.492;12.134;2023-09-07T07:11:57;5.87;;;4.20;;
20159;SDS011;50187;50.492;12.134;2023-09-07T07:14:27;8.27;;;4.30;;
20159;SDS011;50187;50.492;12.134;2023-09-07T07:16:54;4.87;;;3.93;;
20159;SDS011;50187;50.492;12.134;2023-09-07T07:19:21;5.13;;;3.90;;
20159;SDS011;50187;50.492;12.134;2023-09-07T07:21:49;3.87;;;3.50;;
20159;SDS011;50187;50.492;12.134;2023-09-07T07:24:15;5.37;;;3.73;;
20159;SDS011;50187;50.492;12.134;2023-09-07T07:26:43;4.60;;;4.20;;
20159;SDS011;50187;50.492;12.134;2023-09-07T07:29:10;4.60;;;3.47;;
20159;SDS011;50187;50.492;12.134;2023-09-07T07:31:37;3.87;;;3.23;;
20159;SDS011;50187;50.492;12.134;2023-09-07T07:34:04;4.83;;;3.37;;
20159;SDS011;50187;50.492;12.134;2023-09-07T07:36:32;3.77;;;3.47;;
20159;SDS011;50187;50.492;12.134;2023-09-07T07:39:02;4.63;;;3.70;;
20159;SDS011;50187;50.492;12.134;2023-09-07T07:41:30;5.13;;;3.73;;
20159;SDS011;50187;50.492;12.134;2023-09-07T07:43:57;4.43;;;4.03;;
20159;SDS011;50187;50.492;12.134;2023-09-07T07:46:24;4.20;;;3.90;;
20159;SDS011;50187;50.492;12.134;2023-09-07T07:48:51;4.33;;;3.93;;
20159;SDS011;50187;50.492;12.134;2023-09-07T07:51:17;4.73;;;4.20;;
20159;SDS011;50187;50.492;12.134;2023-09-07T07:53:46;5.27;;;3.83;;
20159;SDS011;50187;50.492;12.134;2023-09-07T07:56:16;3.70;;;3.50;;
20159;SDS011;50187;50.492;12.134;2023-09-07T07:58:46;3.90;;;3.60;;
20159;SDS011;50187;50.492;12.134;2023-09-07T08:01:17;4.07;;;3.77;;
20159;SDS011;50187;50.492;12.134;2023-09-07T08:03:46;4.77;;;4.03;;
20159;SDS011;50187;50.492;12.134;2023-09-07T08:06:12;3.93;;;3.53;;
20159;SDS011;50187;50.492;12.134;2023-09-07T08:08:40;3.87;;;3.63;;
20159;SDS011;50187;50.492;12.134;2023-09-07T08:11:07;4.03;;;3.73;;
20159;SDS011;50187;50.492;12.134;2023-09-07T08:13:37;4.17;;;3.63;;
20159;SDS011;50187;50.492;12.134;2023-09-07T08:16:04;4.27;;;3.97;;
20159;SDS011;50187;50.492;12.134;2023-09-07T08:18:32;4.20;;;3.80;;
20159;SDS011;50187;50.492;12.134;2023-09-07T08:21:01;3.53;;;3.23;;
20159;SDS011;50187;50.492;12.134;2023-09-07T08:23:28;3.83;;;3.53;;
20159;SDS011;50187;50.492;12.134;2023-09-07T08:25:55;3.90;;;3.50;;
20159;SDS011;50187;50.492;12.134;2023-09-07T08:28:24;3.40;;;3.20;;
20159;SDS011;50187;50.492;12.134;2023-09-07T08:30:51;3.97;;;3.57;;
20159;SDS011;50187;50.492;12.134;2023-09-07T08:33:20;3.70;;;3.40;;
20159;SDS011;50187;50.492;12.134;2023-09-07T08:35:52;4.43;;;3.10;;
20159;SDS011;50187;50.492;12.134;2023-09-07T08:38:20;3.20;;;3.00;;
20159;SDS011;50187;50.492;12.134;2023-09-07T08:40:54;3.60;;;3.40;;
20159;SDS011;50187;50.492;12.134;2023-09-07T08:43:23;3.77;;;3.47;;
20159;SDS011;50187;50.492;12.134;2023-09-07T08:45:55;3.50;;;3.30;;
20159;SDS011;50187;50.492;12.134;2023-09-07T08:48:30;3.67;;;3.33;;
20159;SDS011;50187;50.492;12.134;2023-09-07T08:50:58;4.00;;;3.70;;
20159;SDS011;50187;50.492;12.134;2023-09-07T08:53:27;3.17;;;2.97;;
20159;SDS011;50187;50.492;12.134;2023-09-07T08:55:56;3.80;;;3.50;;
20159;SDS011;50187;50.492;12.134;2023-09-07T08:58:23;4.97;;;3.30;;
20159;SDS011;50187;50.492;12.134;2023-09-07T09:00:49;4.13;;;3.80;;
20159;SDS011;50187;50.492;12.134;2023-09-07T09:03:18;5.00;;;3.67;;
20159;SDS011;50187;50.492;12.134;2023-09-07T09:05:45;3.87;;;3.57;;
20159;SDS011;50187;50.492;12.134;2023-09-07T09:08:14;3.57;;;3.27;;
20159;SDS011;50187;50.492;12.134;2023-09-07T09:10:46;4.00;;;3.57;;
20159;SDS011;50187;50.492;12.134;2023-09-07T09:13:12;4.43;;;4.13;;
20159;SDS011;50187;50.492;12.134;2023-09-07T09:15:39;4.33;;;3.80;;
20159;SDS011;50187;50.492;12.134;2023-09-07T09:18:10;3.60;;;3.40;;
20159;SDS011;50187;50.492;12.134;2023-09-07T09:20:38;4.80;;;3.97;;
20159;SDS011;50187;50.492;12.134;2023-09-07T09:23:05;4.07;;;3.73;;
20159;SDS011;50187;50.492;12.134;2023-09-07T09:25:33;3.67;;;3.40;;
20159;SDS011;50187;50.492;12.134;2023-09-07T09:28:00;4.50;;;3.70;;
20159;SDS011;50187;50.492;12.134;2023-09-07T09:30:27;4.00;;;3.70;;
20159;SDS011;50187;50.492;12.134;2023-09-07T09:32:53;4.87;;;3.90;;
20159;SDS011;50187;50.492;12.134;2023-09-07T09:35:20;4.67;;;3.60;;
20159;SDS011;50187;50.492;12.134;2023-09-07T09:37:49;3.67;;;3.47;;
20159;SDS011;50187;50.492;12.134;2023-09-07T09:40:16;3.70;;;3.50;;
20159;SDS011;50187;50.492;12.134;2023-09-07T09:42:45;4.00;;;3.80;;
20159;SDS011;50187;50.492;12.134;2023-09-07T09:45:12;3.77;;;3.47;;
20159;SDS011;50187;50.492;12.134;2023-09-07T09:47:40;3.87;;;3.57;;
20159;SDS011;50187;50.492;12.134;2023-09-07T09:50:08;3.80;;;3.50;;
20159;SDS011;50187;50.492;12.134;2023-09-07T09:52:37;3.43;;;3.23;;
20159;SDS011;50187;50.492;12.134;2023-09-07T09:55:05;3.50;;;3.30;;
20159;SDS011;50187;50.492;12.134;2023-09-07T09:57:39;3.43;;;3.23;;
20159;SDS011;50187;50.492;12.134;2023-09-07T10:00:06;3.60;;;3.30;;
20159;SDS011;50187;50.492;12.134;2023-09-07T10:02:49;3.93;;;3.63;;
20159;SDS011;50187;50.492;12.134;2023-09-07T10:05:21;4.07;;;3.77;;
20159;SDS011;50187;50.492;12.134;2023-09-07T10:07:52;3.87;;;3.57;;
20159;SDS011;50187;50.492;12.134;2023-09-07T10:10:19;4.03;;;3.73;;
20159;SDS011;50187;50.492;12.134;2023-09-07T10:12:52;4.10;;;3.80;;
20159;SDS011;50187;50.492;12.134;2023-09-07T10:15:29;3.67;;;3.37;;
20159;SDS011;50187;50.492;12.134;2023-09-07T10:18:10;4.00;;;3.70;;
20159;SDS011;50187;50.492;12.134;2023-09-07T10:23:40;3.40;;;3.10;;
20159;SDS011;50187;50.492;12.134;2023-09-07T10:26:11;3.23;;;3.03;;
20159;SDS011;50187;50.492;12.134;2023-09-07T10:28:39;3.83;;;3.53;;
20159;SDS011;50187;50.492;12.134;2023-09-07T10:31:16;3.60;;;3.30;;
20159;SDS011;50187;50.492;12.134;2023-09-07T10:33:46;3.80;;;3.50;;
20159;SDS011;50187;50.492;12.134;2023-09-07T10:38:49;4.30;;;4.00;;
20159;SDS011;50187;50.492;12.134;2023-09-07T10:41:19;3.67;;;3.47;;
20159;SDS011;50187;50.492;12.134;2023-09-07T10:43:50;3.73;;;3.43;;
20159;SDS011;50187;50.492;12.134;2023-09-07T10:46:20;3.37;;;3.17;;
20159;SDS011;50187;50.492;12.134;2023-09-07T10:48:48;3.53;;;3.23;;
20159;SDS011;50187;50.492;12.134;2023-09-07T10:51:20;2.97;;;2.77;;
20159;SDS011;50187;50.492;12.134;2023-09-07T10:53:47;3.27;;;3.07;;
20159;SDS011;50187;50.492;12.134;2023-09-07T10:56:14;3.53;;;3.23;;
20159;SDS011;50187;50.492;12.134;2023-09-07T10:58:40;3.57;;;3.27;;
20159;SDS011;50187;50.492;12.134;2023-09-07T11:01:09;3.30;;;3.10;;
20159;SDS011;50187;50.492;12.134;2023-09-07T11:03:36;3.30;;;3.10;;
20159;SDS011;50187;50.492;12.134;2023-09-07T11:06:06;3.90;;;3.60;;
20159;SDS011;50187;50.492;12.134;2023-09-07T11:08:35;3.00;;;2.80;;
20159;SDS011;50187;50.492;12.134;2023-09-07T11:11:02;3.27;;;3.07;;
20159;SDS011;50187;50.492;12.134;2023-09-07T11:13:29;3.47;;;3.23;;
20159;SDS011;50187;50.492;12.134;2023-09-07T11:15:57;3.20;;;3.00;;
20159;SDS011;50187;50.492;12.134;2023-09-07T11:18:25;3.20;;;3.03;;
20159;SDS011;50187;50.492;12.134;2023-09-07T11:20:53;3.43;;;3.23;;
20159;SDS011;50187;50.492;12.134;2023-09-07T11:23:20;3.43;;;3.23;;
20159;SDS011;50187;50.492;12.134;2023-09-07T11:25:49;3.40;;;3.13;;
20159;SDS011;50187;50.492;12.134;2023-09-07T11:28:19;3.47;;;3.10;;
20159;SDS011;50187;50.492;12.134;2023-09-07T11:30:52;2.70;;;2.60;;
20159;SDS011;50187;50.492;12.134;2023-09-07T11:33:20;3.13;;;2.93;;
20159;SDS011;50187;50.492;12.134;2023-09-07T11:35:48;3.13;;;2.93;;
20159;SDS011;50187;50.492;12.134;2023-09-07T11:38:15;2.90;;;2.70;;
20159;SDS011;50187;50.492;12.134;2023-09-07T11:40:43;3.10;;;2.90;;
20159;SDS011;50187;50.492;12.134;2023-09-07T11:43:12;3.20;;;2.90;;
20159;SDS011;50187;50.492;12.134;2023-09-07T11:45:40;3.30;;;3.10;;
20159;SDS011;50187;50.492;12.134;2023-09-07T11:48:08;3.30;;;3.10;;
20159;SDS011;50187;50.492;12.134;2023-09-07T11:50:36;3.30;;;3.00;;
20159;SDS011;50187;50.492;12.134;2023-09-07T11:53:04;2.70;;;2.60;;
20159;SDS011;50187;50.492;12.134;2023-09-07T11:55:32;3.00;;;2.80;;
20159;SDS011;50187;50.492;12.134;2023-09-07T11:58:00;3.00;;;2.80;;
20159;SDS011;50187;50.492;12.134;2023-09-07T12:00:31;2.90;;;2.70;;
20159;SDS011;50187;50.492;12.134;2023-09-07T12:02:58;3.30;;;3.00;;
20159;SDS011;50187;50.492;12.134;2023-09-07T12:05:25;2.57;;;2.47;;
20159;SDS011;50187;50.492;12.134;2023-09-07T12:07:52;3.10;;;2.90;;
20159;SDS011;50187;50.492;12.134;2023-09-07T12:10:19;2.90;;;2.70;;
20159;SDS011;50187;50.492;12.134;2023-09-07T12:12:46;2.77;;;2.57;;
20159;SDS011;50187;50.492;12.134;2023-09-07T12:15:12;3.23;;;3.03;;
20159;SDS011;50187;50.492;12.134;2023-09-07T12:17:39;3.13;;;2.93;;
20159;SDS011;50187;50.492;12.134;2023-09-07T12:20:07;2.80;;;2.60;;
20159;SDS011;50187;50.492;12.134;2023-09-07T12:22:37;2.93;;;2.73;;
20159;SDS011;50187;50.492;12.134;2023-09-07T12:25:07;3.10;;;2.90;;
20159;SDS011;50187;50.492;12.134;2023-09-07T12:27:41;2.83;;;2.63;;
20159;SDS011;50187;50.492;12.134;2023-09-07T12:30:18;2.60;;;2.50;;
20159;SDS011;50187;50.492;12.134;2023-09-07T12:32:47;2.77;;;2.60;;
20159;SDS011;50187;50.492;12.134;2023-09-07T12:35:13;2.80;;;2.70;;
20159;SDS011;50187;50.492;12.134;2023-09-07T12:37:41;3.37;;;2.43;;
20159;SDS011;50187;50.492;12.134;2023-09-07T12:40:08;2.67;;;2.57;;
20159;SDS011;50187;50.492;12.134;2023-09-07T12:42:45;3.33;;;3.03;;
20159;SDS011;50187;50.492;12.134;2023-09-07T12:45:12;3.23;;;3.03;;
20159;SDS011;50187;50.492;12.134;2023-09-07T12:47:40;2.63;;;2.43;;
20159;SDS011;50187;50.492;12.134;2023-09-07T12:50:07;2.90;;;2.70;;
20159;SDS011;50187;50.492;12.134;2023-09-07T12:52:34;2.80;;;2.60;;
20159;SDS011;50187;50.492;12.134;2023-09-07T12:55:05;2.73;;;2.63;;
20159;SDS011;50187;50.492;12.134;2023-09-07T12:57:32;2.80;;;2.60;;
20159;SDS011;50187;50.492;12.134;2023-09-07T13:00:01;2.53;;;2.43;;
20159;SDS011;50187;50.492;12.134;2023-09-07T13:02:28;3.63;;;3.17;;
20159;SDS011;50187;50.492;12.134;2023-09-07T13:04:55;2.80;;;2.60;;
20159;SDS011;50187;50.492;12.134;2023-09-07T13:07:22;2.90;;;2.70;;
20159;SDS011;50187;50.492;12.134;2023-09-07T13:09:48;2.67;;;2.50;;
20159;SDS011;50187;50.492;12.134;2023-09-07T13:12:16;2.67;;;2.57;;
20159;SDS011;50187;50.492;12.134;2023-09-07T13:14:42;2.83;;;2.63;;
20159;SDS011;50187;50.492;12.134;2023-09-07T13:17:13;2.73;;;2.60;;
20159;SDS011;50187;50.492;12.134;2023-09-07T13:19:42;2.70;;;2.60;;
20159;SDS011;50187;50.492;12.134;2023-09-07T13:22:10;2.57;;;2.40;;
20159;SDS011;50187;50.492;12.134;2023-09-07T13:24:36;2.37;;;2.27;;
20159;SDS011;50187;50.492;12.134;2023-09-07T13:27:03;2.70;;;2.50;;
20159;SDS011;50187;50.492;12.134;2023-09-07T13:29:31;2.40;;;2.30;;
20159;SDS011;50187;50.492;12.134;2023-09-07T13:31:58;2.70;;;2.50;;
20159;SDS011;50187;50.492;12.134;2023-09-07T13:34:25;2.80;;;2.60;;
20159;SDS011;50187;50.492;12.134;2023-09-07T13:36:52;2.73;;;2.57;;
20159;SDS011;50187;50.492;12.134;2023-09-07T13:39:19;2.53;;;2.40;;
20159;SDS011;50187;50.492;12.134;2023-09-07T13:41:46;2.47;;;2.33;;
20159;SDS011;50187;50.492;12.134;2023-09-07T13:44:13;2.97;;;2.80;;
20159;SDS011;50187;50.492;12.134;2023-09-07T13:46:40;2.40;;;2.30;;
20159;SDS011;50187;50.492;12.134;2023-09-07T13:49:08;2.53;;;2.40;;
20159;SDS011;50187;50.492;12.134;2023-09-07T13:51:34;2.40;;;2.30;;
20159;SDS011;50187;50.492;12.134;2023-09-07T13:54:04;2.63;;;2.43;;
20159;SDS011;50187;50.492;12.134;2023-09-07T13:56:32;2.27;;;2.17;;
20159;SDS011;50187;50.492;12.134;2023-09-07T13:58:59;2.40;;;2.30;;
20159;SDS011;50187;50.492;12.134;2023-09-07T14:01:26;2.40;;;2.30;;
20159;SDS011;50187;50.492;12.134;2023-09-07T14:03:53;2.23;;;2.13;;
20159;SDS011;50187;50.492;12.134;2023-09-07T14:06:19;2.53;;;2.33;;
20159;SDS011;50187;50.492;12.134;2023-09-07T14:08:48;2.20;;;2.10;;
20159;SDS011;50187;50.492;12.134;2023-09-07T14:11:15;2.50;;;2.30;;
20159;SDS011;50187;50.492;12.134;2023-09-07T14:13:42;2.40;;;2.23;;
20159;SDS011;50187;50.492;12.134;2023-09-07T14:16:08;2.27;;;2.17;;
20159;SDS011;50187;50.492;12.134;2023-09-07T14:18:38;2.17;;;2.07;;
20159;SDS011;50187;50.492;12.134;2023-09-07T14:21:04;2.60;;;2.50;;
20159;SDS011;50187;50.492;12.134;2023-09-07T14:23:31;2.70;;;2.50;;
20159;SDS011;50187;50.492;12.134;2023-09-07T14:25:58;2.50;;;2.40;;
20159;SDS011;50187;50.492;12.134;2023-09-07T14:28:25;2.37;;;2.20;;
20159;SDS011;50187;50.492;12.134;2023-09-07T14:30:53;2.33;;;2.23;;
20159;SDS011;50187;50.492;12.134;2023-09-07T14:33:21;2.20;;;2.10;;
20159;SDS011;50187;50.492;12.134;2023-09-07T14:35:51;2.20;;;2.10;;
20159;SDS011;50187;50.492;12.134;2023-09-07T14:38:23;2.23;;;2.10;;
20159;SDS011;50187;50.492;12.134;2023-09-07T14:40:50;2.40;;;2.30;;
20159;SDS011;50187;50.492;12.134;2023-09-07T14:43:17;2.70;;;2.50;;
20159;SDS011;50187;50.492;12.134;2023-09-07T14:45:45;2.90;;;2.70;;